sensor_id;sensor_type;location;lat;lon;timestamp;pressure;altitude;pressure_sealevel;temperature;humidity
78337;BME280;67610;51.588;7.002;2023-04-25T00:01:39;100228.16;;;8.40;64.33
78337;BME280;67610;51.588;7.002;2023-04-25T00:04:05;100223.34;;;8.36;64.13
78337;BME280;67610;51.588;7.002;2023-04-25T00:06:31;100221.41;;;8.38;64.31
78337;BME280;67610;51.588;7.002;2023-04-25T00:08:57;100219.00;;;8.44;64.36
78337;BME280;67610;51.588;7.002;2023-04-25T00:11:23;100228.81;;;8.42;64.36
78337;BME280;67610;51.588;7.002;2023-04-25T00:13:49;100219.34;;;8.41;64.51
78337;BME280;67610;51.588;7.002;2023-04-25T00:16:16;100226.59;;;8.48;64.40
78337;BME280;67610;51.588;7.002;2023-04-25T00:18:42;100233.03;;;8.53;64.49
78337;BME280;67610;51.588;7.002;2023-04-25T00:21:08;100234.69;;;8.54;64.40
78337;BME280;67610;51.588;7.002;2023-04-25T00:23:33;100237.47;;;8.53;64.42
78337;BME280;67610;51.588;7.002;2023-04-25T00:26:01;100231.47;;;8.60;64.67
78337;BME280;67610;51.588;7.002;2023-04-25T00:28:27;100235.06;;;8.59;64.65
78337;BME280;67610;51.588;7.002;2023-04-25T00:30:52;100240.03;;;8.62;64.60
78337;BME280;67610;51.588;7.002;2023-04-25T00:33:18;100234.47;;;8.65;64.97
78337;BME280;67610;51.588;7.002;2023-04-25T00:35:43;100238.44;;;8.69;64.59
78337;BME280;67610;51.588;7.002;2023-04-25T00:38:08;100233.72;;;8.73;64.38
78337;BME280;67610;51.588;7.002;2023-04-25T00:40:34;100227.50;;;8.74;65.01
78337;BME280;67610;51.588;7.002;2023-04-25T00:43:00;100230.28;;;8.72;64.69
78337;BME280;67610;51.588;7.002;2023-04-25T00:45:27;100230.59;;;8.69;64.81
78337;BME280;67610;51.588;7.002;2023-04-25T00:47:54;100229.59;;;8.70;64.95
78337;BME280;67610;51.588;7.002;2023-04-25T00:50:19;100230.88;;;8.66;65.45
78337;BME280;67610;51.588;7.002;2023-04-25T00:52:45;100237.34;;;8.72;65.20
78337;BME280;67610;51.588;7.002;2023-04-25T00:55:12;100240.91;;;8.71;65.33
78337;BME280;67610;51.588;7.002;2023-04-25T00:57:38;100235.84;;;8.69;65.39
78337;BME280;67610;51.588;7.002;2023-04-25T01:00:05;100238.75;;;8.66;65.72
78337;BME280;67610;51.588;7.002;2023-04-25T01:02:34;100238.13;;;8.72;65.37
78337;BME280;67610;51.588;7.002;2023-04-25T01:05:02;100250.78;;;8.77;65.12
78337;BME280;67610;51.588;7.002;2023-04-25T01:07:29;100245.25;;;8.80;65.13
78337;BME280;67610;51.588;7.002;2023-04-25T01:09:55;100247.72;;;8.81;65.13
78337;BME280;67610;51.588;7.002;2023-04-25T01:12:21;100246.75;;;8.82;65.14
78337;BME280;67610;51.588;7.002;2023-04-25T01:14:46;100242.56;;;8.89;65.13
78337;BME280;67610;51.588;7.002;2023-04-25T01:17:12;100236.03;;;8.93;64.89
78337;BME280;67610;51.588;7.002;2023-04-25T01:19:38;100237.69;;;8.94;64.71
78337;BME280;67610;51.588;7.002;2023-04-25T01:22:04;100241.81;;;8.97;64.85
78337;BME280;67610;51.588;7.002;2023-04-25T01:24:32;100238.53;;;8.95;65.10
78337;BME280;67610;51.588;7.002;2023-04-25T01:26:59;100248.47;;;8.91;64.80
78337;BME280;67610;51.588;7.002;2023-04-25T01:29:28;100245.03;;;8.91;65.06
78337;BME280;67610;51.588;7.002;2023-04-25T01:31:54;100246.03;;;8.90;64.96
78337;BME280;67610;51.588;7.002;2023-04-25T01:34:20;100238.81;;;8.92;65.25
78337;BME280;67610;51.588;7.002;2023-04-25T01:36:49;100256.72;;;8.96;65.07
78337;BME280;67610;51.588;7.002;2023-04-25T01:39:15;100260.19;;;8.97;65.06
78337;BME280;67610;51.588;7.002;2023-04-25T01:41:41;100252.06;;;8.90;65.02
78337;BME280;67610;51.588;7.002;2023-04-25T01:44:06;100255.53;;;8.91;65.11
78337;BME280;67610;51.588;7.002;2023-04-25T01:46:33;100259.25;;;8.88;65.34
78337;BME280;67610;51.588;7.002;2023-04-25T01:48:58;100254.56;;;8.92;65.15
78337;BME280;67610;51.588;7.002;2023-04-25T01:51:23;100259.44;;;8.87;65.23
78337;BME280;67610;51.588;7.002;2023-04-25T01:53:49;100266.47;;;8.86;65.23
78337;BME280;67610;51.588;7.002;2023-04-25T01:56:14;100263.38;;;8.91;65.30
78337;BME280;67610;51.588;7.002;2023-04-25T01:58:40;100269.47;;;8.91;65.21
78337;BME280;67610;51.588;7.002;2023-04-25T02:01:05;100269.75;;;8.88;65.30
78337;BME280;67610;51.588;7.002;2023-04-25T02:03:31;100275.66;;;8.90;65.33
78337;BME280;67610;51.588;7.002;2023-04-25T02:05:57;100285.56;;;8.79;65.49
78337;BME280;67610;51.588;7.002;2023-04-25T02:08:22;100276.22;;;8.76;65.81
78337;BME280;67610;51.588;7.002;2023-04-25T02:10:47;100287.38;;;8.78;65.84
78337;BME280;67610;51.588;7.002;2023-04-25T02:13:13;100291.63;;;8.79;66.01
78337;BME280;67610;51.588;7.002;2023-04-25T02:15:38;100288.50;;;8.76;66.00
78337;BME280;67610;51.588;7.002;2023-04-25T02:18:03;100294.56;;;8.76;66.37
78337;BME280;67610;51.588;7.002;2023-04-25T02:20:29;100293.81;;;8.84;66.15
78337;BME280;67610;51.588;7.002;2023-04-25T02:22:55;100288.78;;;8.90;66.14
78337;BME280;67610;51.588;7.002;2023-04-25T02:25:21;100292.91;;;8.93;65.63
78337;BME280;67610;51.588;7.002;2023-04-25T02:27:48;100289.47;;;8.92;65.74
78337;BME280;67610;51.588;7.002;2023-04-25T02:30:13;100295.84;;;8.90;65.68
78337;BME280;67610;51.588;7.002;2023-04-25T02:32:39;100297.63;;;8.89;66.17
78337;BME280;67610;51.588;7.002;2023-04-25T02:35:05;100305.06;;;8.94;65.84
78337;BME280;67610;51.588;7.002;2023-04-25T02:37:32;100303.41;;;8.93;65.51
78337;BME280;67610;51.588;7.002;2023-04-25T02:39:58;100301.78;;;8.92;65.47
78337;BME280;67610;51.588;7.002;2023-04-25T02:42:23;100304.69;;;8.89;65.70
78337;BME280;67610;51.588;7.002;2023-04-25T02:44:49;100305.41;;;8.81;65.87
78337;BME280;67610;51.588;7.002;2023-04-25T02:47:14;100309.03;;;8.80;66.15
78337;BME280;67610;51.588;7.002;2023-04-25T02:49:40;100300.50;;;8.78;66.19
78337;BME280;67610;51.588;7.002;2023-04-25T02:52:05;100305.06;;;8.76;66.42
78337;BME280;67610;51.588;7.002;2023-04-25T02:54:31;100308.78;;;8.74;66.39
78337;BME280;67610;51.588;7.002;2023-04-25T02:56:56;100302.44;;;8.76;66.45
78337;BME280;67610;51.588;7.002;2023-04-25T02:59:22;100306.84;;;8.76;66.20
78337;BME280;67610;51.588;7.002;2023-04-25T03:01:47;100309.03;;;8.80;66.18
78337;BME280;67610;51.588;7.002;2023-04-25T03:04:12;100306.00;;;8.75;66.22
78337;BME280;67610;51.588;7.002;2023-04-25T03:06:38;100302.72;;;8.73;66.28
78337;BME280;67610;51.588;7.002;2023-04-25T03:09:03;100305.19;;;8.75;66.31
78337;BME280;67610;51.588;7.002;2023-04-25T03:11:29;100311.69;;;8.71;66.46
78337;BME280;67610;51.588;7.002;2023-04-25T03:13:55;100307.06;;;8.65;66.59
78337;BME280;67610;51.588;7.002;2023-04-25T03:16:21;100308.41;;;8.69;66.71
78337;BME280;67610;51.588;7.002;2023-04-25T03:18:47;100311.88;;;8.69;66.49
78337;BME280;67610;51.588;7.002;2023-04-25T03:21:12;100313.22;;;8.73;66.70
78337;BME280;67610;51.588;7.002;2023-04-25T03:23:37;100311.78;;;8.79;66.41
78337;BME280;67610;51.588;7.002;2023-04-25T03:26:03;100315.91;;;8.81;66.34
78337;BME280;67610;51.588;7.002;2023-04-25T03:28:29;100305.13;;;8.84;66.27
78337;BME280;67610;51.588;7.002;2023-04-25T03:30:54;100318.91;;;8.86;66.16
78337;BME280;67610;51.588;7.002;2023-04-25T03:33:19;100326.38;;;8.81;66.45
78337;BME280;67610;51.588;7.002;2023-04-25T03:35:45;100333.06;;;8.76;66.51
78337;BME280;67610;51.588;7.002;2023-04-25T03:38:11;100338.16;;;8.77;65.46
78337;BME280;67610;51.588;7.002;2023-04-25T03:40:36;100332.28;;;8.66;64.17
78337;BME280;67610;51.588;7.002;2023-04-25T03:43:02;100331.91;;;8.61;63.24
78337;BME280;67610;51.588;7.002;2023-04-25T03:45:27;100336.50;;;8.49;63.01
78337;BME280;67610;51.588;7.002;2023-04-25T03:47:53;100335.44;;;8.42;63.43
78337;BME280;67610;51.588;7.002;2023-04-25T03:50:18;100340.34;;;8.27;63.51
78337;BME280;67610;51.588;7.002;2023-04-25T03:52:43;100349.56;;;8.22;63.92
78337;BME280;67610;51.588;7.002;2023-04-25T03:55:09;100341.44;;;8.25;63.96
78337;BME280;67610;51.588;7.002;2023-04-25T03:57:35;100336.06;;;8.26;63.99
78337;BME280;67610;51.588;7.002;2023-04-25T04:00:01;100346.09;;;8.21;63.67
78337;BME280;67610;51.588;7.002;2023-04-25T04:02:26;100341.03;;;8.20;63.66
78337;BME280;67610;51.588;7.002;2023-04-25T04:04:51;100339.66;;;8.16;63.71
78337;BME280;67610;51.588;7.002;2023-04-25T04:07:17;100336.38;;;8.14;63.89
78337;BME280;67610;51.588;7.002;2023-04-25T04:09:42;100337.72;;;8.18;63.66
78337;BME280;67610;51.588;7.002;2023-04-25T04:12:08;100337.16;;;8.14;64.08
78337;BME280;67610;51.588;7.002;2023-04-25T04:14:33;100338.69;;;8.17;64.03
78337;BME280;67610;51.588;7.002;2023-04-25T04:16:58;100337.56;;;8.19;64.03
78337;BME280;67610;51.588;7.002;2023-04-25T04:19:24;100346.25;;;8.20;63.80
78337;BME280;67610;51.588;7.002;2023-04-25T04:21:49;100345.16;;;8.22;63.82
78337;BME280;67610;51.588;7.002;2023-04-25T04:24:14;100354.53;;;8.25;63.96
78337;BME280;67610;51.588;7.002;2023-04-25T04:26:42;100355.34;;;8.25;63.90
78337;BME280;67610;51.588;7.002;2023-04-25T04:29:10;100352.63;;;8.27;63.87
78337;BME280;67610;51.588;7.002;2023-04-25T04:31:37;100362.25;;;8.26;63.75
78337;BME280;67610;51.588;7.002;2023-04-25T04:34:03;100367.34;;;8.28;63.97
78337;BME280;67610;51.588;7.002;2023-04-25T04:36:29;100362.81;;;8.30;64.07
78337;BME280;67610;51.588;7.002;2023-04-25T04:38:54;100368.75;;;8.32;64.11
78337;BME280;67610;51.588;7.002;2023-04-25T04:41:21;100367.06;;;8.31;64.31
78337;BME280;67610;51.588;7.002;2023-04-25T04:43:47;100367.75;;;8.33;64.65
78337;BME280;67610;51.588;7.002;2023-04-25T04:46:13;100360.44;;;8.36;64.21
78337;BME280;67610;51.588;7.002;2023-04-25T04:48:38;100365.38;;;8.39;64.29
78337;BME280;67610;51.588;7.002;2023-04-25T04:51:05;100370.50;;;8.41;64.79
78337;BME280;67610;51.588;7.002;2023-04-25T04:53:31;100374.75;;;8.42;64.70
78337;BME280;67610;51.588;7.002;2023-04-25T04:55:57;100378.47;;;8.39;64.94
78337;BME280;67610;51.588;7.002;2023-04-25T04:58:22;100387.03;;;8.41;65.14
78337;BME280;67610;51.588;7.002;2023-04-25T05:00:49;100386.47;;;8.48;65.20
78337;BME280;67610;51.588;7.002;2023-04-25T05:03:14;100391.53;;;8.49;65.24
78337;BME280;67610;51.588;7.002;2023-04-25T05:05:41;100386.97;;;8.51;65.49
78337;BME280;67610;51.588;7.002;2023-04-25T05:08:07;100391.94;;;8.54;65.55
78337;BME280;67610;51.588;7.002;2023-04-25T05:10:33;100385.44;;;8.58;65.47
78337;BME280;67610;51.588;7.002;2023-04-25T05:12:58;100402.81;;;8.59;65.63
78337;BME280;67610;51.588;7.002;2023-04-25T05:15:24;100401.16;;;8.58;65.76
78337;BME280;67610;51.588;7.002;2023-04-25T05:17:50;100393.69;;;8.63;65.93
78337;BME280;67610;51.588;7.002;2023-04-25T05:20:15;100396.03;;;8.66;66.09
78337;BME280;67610;51.588;7.002;2023-04-25T05:22:41;100400.00;;;8.70;66.02
78337;BME280;67610;51.588;7.002;2023-04-25T05:25:08;100403.03;;;8.75;65.62
78337;BME280;67610;51.588;7.002;2023-04-25T05:27:34;100410.31;;;8.81;65.78
78337;BME280;67610;51.588;7.002;2023-04-25T05:29:59;100422.19;;;8.85;65.65
78337;BME280;67610;51.588;7.002;2023-04-25T05:32:25;100415.81;;;8.88;65.46
78337;BME280;67610;51.588;7.002;2023-04-25T05:34:50;100425.16;;;8.90;65.41
78337;BME280;67610;51.588;7.002;2023-04-25T05:37:17;100416.06;;;8.94;65.44
78337;BME280;67610;51.588;7.002;2023-04-25T05:39:42;100422.38;;;9.01;65.19
78337;BME280;67610;51.588;7.002;2023-04-25T05:42:09;100427.06;;;8.98;65.30
78337;BME280;67610;51.588;7.002;2023-04-25T05:44:34;100428.56;;;9.00;65.17
78337;BME280;67610;51.588;7.002;2023-04-25T05:47:00;100432.53;;;9.04;64.92
78337;BME280;67610;51.588;7.002;2023-04-25T05:49:25;100436.69;;;9.07;64.74
78337;BME280;67610;51.588;7.002;2023-04-25T05:51:51;100436.53;;;9.08;64.58
78337;BME280;67610;51.588;7.002;2023-04-25T05:54:16;100444.09;;;9.11;64.35
78337;BME280;67610;51.588;7.002;2023-04-25T05:56:41;100445.59;;;9.14;64.30
78337;BME280;67610;51.588;7.002;2023-04-25T05:59:07;100454.53;;;9.21;64.48
78337;BME280;67610;51.588;7.002;2023-04-25T06:01:32;100463.03;;;9.33;64.03
78337;BME280;67610;51.588;7.002;2023-04-25T06:03:58;100469.06;;;9.43;63.78
78337;BME280;67610;51.588;7.002;2023-04-25T06:06:23;100467.72;;;9.56;63.52
78337;BME280;67610;51.588;7.002;2023-04-25T06:08:49;100465.31;;;9.63;63.57
78337;BME280;67610;51.588;7.002;2023-04-25T06:11:14;100466.38;;;9.70;63.25
78337;BME280;67610;51.588;7.002;2023-04-25T06:13:41;100462.63;;;9.72;62.83
78337;BME280;67610;51.588;7.002;2023-04-25T06:16:06;100476.66;;;9.81;63.16
78337;BME280;67610;51.588;7.002;2023-04-25T06:18:33;100477.94;;;9.77;62.62
78337;BME280;67610;51.588;7.002;2023-04-25T06:20:59;100483.78;;;9.89;62.47
78337;BME280;67610;51.588;7.002;2023-04-25T06:23:25;100487.63;;;9.94;61.12
78337;BME280;67610;51.588;7.002;2023-04-25T06:25:51;100481.91;;;9.81;61.24
78337;BME280;67610;51.588;7.002;2023-04-25T06:28:16;100483.81;;;9.71;61.43
78337;BME280;67610;51.588;7.002;2023-04-25T06:30:41;100484.97;;;9.76;61.20
78337;BME280;67610;51.588;7.002;2023-04-25T06:33:07;100480.28;;;9.80;61.30
78337;BME280;67610;51.588;7.002;2023-04-25T06:35:34;100488.72;;;9.74;61.00
78337;BME280;67610;51.588;7.002;2023-04-25T06:37:59;100482.53;;;9.75;60.76
78337;BME280;67610;51.588;7.002;2023-04-25T06:40:25;100491.28;;;9.66;60.23
78337;BME280;67610;51.588;7.002;2023-04-25T06:42:50;100482.75;;;9.64;59.84
78337;BME280;67610;51.588;7.002;2023-04-25T06:45:15;100489.34;;;9.68;59.58
78337;BME280;67610;51.588;7.002;2023-04-25T06:47:42;100490.69;;;9.72;59.20
78337;BME280;67610;51.588;7.002;2023-04-25T06:50:14;100488.44;;;9.77;58.43
78337;BME280;67610;51.588;7.002;2023-04-25T06:52:39;100490.31;;;9.84;58.70
78337;BME280;67610;51.588;7.002;2023-04-25T06:55:05;100489.56;;;9.92;58.39
78337;BME280;67610;51.588;7.002;2023-04-25T06:57:31;100495.34;;;9.96;57.99
78337;BME280;67610;51.588;7.002;2023-04-25T06:59:56;100504.13;;;10.04;57.54
78337;BME280;67610;51.588;7.002;2023-04-25T07:02:21;100499.53;;;10.06;57.17
78337;BME280;67610;51.588;7.002;2023-04-25T07:04:47;100492.06;;;10.11;56.69
78337;BME280;67610;51.588;7.002;2023-04-25T07:07:13;100498.34;;;10.18;57.23
78337;BME280;67610;51.588;7.002;2023-04-25T07:09:39;100497.13;;;10.30;57.25
78337;BME280;67610;51.588;7.002;2023-04-25T07:12:05;100505.91;;;10.39;54.76
78337;BME280;67610;51.588;7.002;2023-04-25T07:14:30;100503.81;;;10.42;55.74
78337;BME280;67610;51.588;7.002;2023-04-25T07:16:56;100514.38;;;10.50;55.44
78337;BME280;67610;51.588;7.002;2023-04-25T07:19:22;100512.94;;;10.56;53.70
78337;BME280;67610;51.588;7.002;2023-04-25T07:21:52;100519.63;;;10.50;54.00
78337;BME280;67610;51.588;7.002;2023-04-25T07:24:22;100516.13;;;10.68;55.41
78337;BME280;67610;51.588;7.002;2023-04-25T07:26:48;100524.03;;;10.93;55.13
78337;BME280;67610;51.588;7.002;2023-04-25T07:29:14;100529.88;;;11.13;53.64
78337;BME280;67610;51.588;7.002;2023-04-25T07:31:40;100529.44;;;11.34;54.30
78337;BME280;67610;51.588;7.002;2023-04-25T07:34:05;100521.28;;;11.53;53.09
78337;BME280;67610;51.588;7.002;2023-04-25T07:36:31;100532.75;;;11.77;53.48
78337;BME280;67610;51.588;7.002;2023-04-25T07:38:56;100534.13;;;11.98;53.38
78337;BME280;67610;51.588;7.002;2023-04-25T07:41:22;100539.22;;;12.15;52.76
78337;BME280;67610;51.588;7.002;2023-04-25T07:43:47;100540.41;;;12.37;52.68
78337;BME280;67610;51.588;7.002;2023-04-25T07:46:13;100534.94;;;12.54;51.51
78337;BME280;67610;51.588;7.002;2023-04-25T07:48:38;100546.63;;;12.76;50.58
78337;BME280;67610;51.588;7.002;2023-04-25T07:51:04;100544.00;;;12.76;50.71
78337;BME280;67610;51.588;7.002;2023-04-25T07:53:30;100549.09;;;12.78;50.63
78337;BME280;67610;51.588;7.002;2023-04-25T07:55:57;100543.34;;;12.74;50.32
78337;BME280;67610;51.588;7.002;2023-04-25T07:58:22;100553.91;;;12.74;50.91
78337;BME280;67610;51.588;7.002;2023-04-25T08:00:48;100554.88;;;12.65;49.33
78337;BME280;67610;51.588;7.002;2023-04-25T08:03:15;100555.19;;;12.70;49.80
78337;BME280;67610;51.588;7.002;2023-04-25T08:05:40;100556.03;;;12.79;50.03
78337;BME280;67610;51.588;7.002;2023-04-25T08:08:05;100563.75;;;12.88;49.48
78337;BME280;67610;51.588;7.002;2023-04-25T08:10:32;100573.66;;;12.86;49.09
78337;BME280;67610;51.588;7.002;2023-04-25T08:12:59;100573.16;;;12.75;48.35
78337;BME280;67610;51.588;7.002;2023-04-25T08:15:25;100578.28;;;12.76;49.34
78337;BME280;67610;51.588;7.002;2023-04-25T08:17:51;100584.19;;;12.86;49.33
78337;BME280;67610;51.588;7.002;2023-04-25T08:20:16;100588.28;;;13.05;48.45
78337;BME280;67610;51.588;7.002;2023-04-25T08:22:42;100585.81;;;13.19;47.51
78337;BME280;67610;51.588;7.002;2023-04-25T08:25:08;100587.91;;;13.40;48.15
78337;BME280;67610;51.588;7.002;2023-04-25T08:27:34;100585.84;;;13.58;47.99
78337;BME280;67610;51.588;7.002;2023-04-25T08:30:03;100584.50;;;13.93;47.83
78337;BME280;67610;51.588;7.002;2023-04-25T08:32:28;100589.66;;;14.17;46.77
78337;BME280;67610;51.588;7.002;2023-04-25T08:34:54;100587.38;;;14.37;46.90
78337;BME280;67610;51.588;7.002;2023-04-25T08:37:20;100589.16;;;14.82;45.40
78337;BME280;67610;51.588;7.002;2023-04-25T08:39:46;100598.69;;;15.05;45.32
78337;BME280;67610;51.588;7.002;2023-04-25T08:42:14;100610.22;;;15.27;44.99
78337;BME280;67610;51.588;7.002;2023-04-25T08:44:40;100604.28;;;15.25;42.65
78337;BME280;67610;51.588;7.002;2023-04-25T08:47:06;100604.91;;;15.42;43.34
78337;BME280;67610;51.588;7.002;2023-04-25T08:49:33;100609.31;;;15.64;41.64
78337;BME280;67610;51.588;7.002;2023-04-25T08:52:03;100625.06;;;15.65;41.63
78337;BME280;67610;51.588;7.002;2023-04-25T08:54:31;100617.91;;;15.66;40.58
78337;BME280;67610;51.588;7.002;2023-04-25T08:57:00;100619.28;;;15.76;40.34
78337;BME280;67610;51.588;7.002;2023-04-25T08:59:30;100621.28;;;15.74;39.92
78337;BME280;67610;51.588;7.002;2023-04-25T09:01:56;100619.25;;;15.91;40.81
78337;BME280;67610;51.588;7.002;2023-04-25T09:04:22;100633.38;;;16.13;41.30
78337;BME280;67610;51.588;7.002;2023-04-25T09:06:47;100634.38;;;16.33;39.58
78337;BME280;67610;51.588;7.002;2023-04-25T09:09:14;100640.00;;;16.59;39.14
78337;BME280;67610;51.588;7.002;2023-04-25T09:11:40;100646.09;;;16.53;39.06
78337;BME280;67610;51.588;7.002;2023-04-25T09:14:16;100638.22;;;16.66;37.38
78337;BME280;67610;51.588;7.002;2023-04-25T09:19:41;100643.31;;;16.89;37.46
78337;BME280;67610;51.588;7.002;2023-04-25T09:22:07;100648.03;;;17.14;37.71
78337;BME280;67610;51.588;7.002;2023-04-25T09:27:03;100652.44;;;17.63;36.40
78337;BME280;67610;51.588;7.002;2023-04-25T09:29:30;100653.44;;;17.55;34.48
78337;BME280;67610;51.588;7.002;2023-04-25T09:34:48;100650.25;;;18.27;33.96
78337;BME280;67610;51.588;7.002;2023-04-25T09:37:27;100649.16;;;18.68;32.11
78337;BME280;67610;51.588;7.002;2023-04-25T09:39:58;100652.63;;;19.08;32.69
78337;BME280;67610;51.588;7.002;2023-04-25T09:42:25;100652.81;;;19.46;32.27
78337;BME280;67610;51.588;7.002;2023-04-25T09:44:53;100659.22;;;19.96;31.68
78337;BME280;67610;51.588;7.002;2023-04-25T09:47:19;100671.38;;;20.36;31.73
78337;BME280;67610;51.588;7.002;2023-04-25T09:49:47;100656.00;;;20.63;28.50
78337;BME280;67610;51.588;7.002;2023-04-25T09:52:15;100668.63;;;20.80;29.56
78337;BME280;67610;51.588;7.002;2023-04-25T09:54:41;100671.59;;;20.66;27.64
78337;BME280;67610;51.588;7.002;2023-04-25T09:57:11;100671.09;;;20.06;28.80
78337;BME280;67610;51.588;7.002;2023-04-25T09:59:43;100665.03;;;19.73;28.55
78337;BME280;67610;51.588;7.002;2023-04-25T10:02:10;100670.03;;;19.50;30.01
78337;BME280;67610;51.588;7.002;2023-04-25T10:04:37;100670.44;;;19.34;30.45
78337;BME280;67610;51.588;7.002;2023-04-25T10:07:05;100684.81;;;19.07;29.97
78337;BME280;67610;51.588;7.002;2023-04-25T10:09:31;100676.41;;;18.70;30.77
78337;BME280;67610;51.588;7.002;2023-04-25T10:11:59;100682.25;;;18.33;31.17
78337;BME280;67610;51.588;7.002;2023-04-25T10:14:26;100690.06;;;17.94;31.21
78337;BME280;67610;51.588;7.002;2023-04-25T10:16:52;100688.97;;;17.48;30.49
78337;BME280;67610;51.588;7.002;2023-04-25T10:19:19;100692.03;;;16.96;31.34
78337;BME280;67610;51.588;7.002;2023-04-25T10:21:53;100699.06;;;16.61;32.46
78337;BME280;67610;51.588;7.002;2023-04-25T10:24:19;100710.38;;;16.34;33.17
78337;BME280;67610;51.588;7.002;2023-04-25T10:26:46;100710.03;;;16.07;34.04
78337;BME280;67610;51.588;7.002;2023-04-25T10:29:12;100719.78;;;15.71;34.96
78337;BME280;67610;51.588;7.002;2023-04-25T10:31:47;100723.38;;;15.04;37.12
78337;BME280;67610;51.588;7.002;2023-04-25T10:34:12;100730.38;;;14.51;39.44
78337;BME280;67610;51.588;7.002;2023-04-25T10:36:38;100743.78;;;14.03;40.79
78337;BME280;67610;51.588;7.002;2023-04-25T10:39:05;100753.81;;;13.69;42.40
78337;BME280;67610;51.588;7.002;2023-04-25T10:41:53;100755.31;;;13.39;43.31
78337;BME280;67610;51.588;7.002;2023-04-25T10:44:20;100755.34;;;13.15;44.50
78337;BME280;67610;51.588;7.002;2023-04-25T10:46:46;100750.69;;;12.85;44.35
78337;BME280;67610;51.588;7.002;2023-04-25T10:49:29;100754.47;;;12.74;45.56
78337;BME280;67610;51.588;7.002;2023-04-25T10:54:47;100756.59;;;12.63;46.41
78337;BME280;67610;51.588;7.002;2023-04-25T10:57:32;100754.09;;;12.61;46.90
78337;BME280;67610;51.588;7.002;2023-04-25T11:00:00;100750.63;;;12.52;45.47
78337;BME280;67610;51.588;7.002;2023-04-25T11:02:27;100744.81;;;12.49;45.58
78337;BME280;67610;51.588;7.002;2023-04-25T11:04:53;100744.34;;;12.45;45.62
78337;BME280;67610;51.588;7.002;2023-04-25T11:10:06;100736.44;;;12.61;44.68
78337;BME280;67610;51.588;7.002;2023-04-25T11:12:32;100745.84;;;12.72;45.33
78337;BME280;67610;51.588;7.002;2023-04-25T11:15:02;100743.09;;;12.90;44.56
78337;BME280;67610;51.588;7.002;2023-04-25T11:17:28;100747.59;;;13.05;43.78
78337;BME280;67610;51.588;7.002;2023-04-25T11:19:54;100751.03;;;13.14;43.06
78337;BME280;67610;51.588;7.002;2023-04-25T11:22:21;100745.91;;;13.53;42.67
78337;BME280;67610;51.588;7.002;2023-04-25T11:24:47;100744.88;;;13.78;42.17
78337;BME280;67610;51.588;7.002;2023-04-25T11:27:13;100740.97;;;14.05;43.00
78337;BME280;67610;51.588;7.002;2023-04-25T11:29:38;100739.94;;;14.52;39.94
78337;BME280;67610;51.588;7.002;2023-04-25T11:32:05;100740.63;;;14.77;38.52
78337;BME280;67610;51.588;7.002;2023-04-25T11:34:32;100734.81;;;14.82;37.86
78337;BME280;67610;51.588;7.002;2023-04-25T11:36:58;100731.38;;;14.96;37.30
78337;BME280;67610;51.588;7.002;2023-04-25T11:39:25;100739.38;;;14.88;35.58
78337;BME280;67610;51.588;7.002;2023-04-25T11:41:51;100733.97;;;14.58;35.14
78337;BME280;67610;51.588;7.002;2023-04-25T11:44:18;100734.84;;;14.74;35.41
78337;BME280;67610;51.588;7.002;2023-04-25T11:46:44;100731.13;;;14.83;34.79
78337;BME280;67610;51.588;7.002;2023-04-25T11:49:09;100727.84;;;14.81;35.39
78337;BME280;67610;51.588;7.002;2023-04-25T11:51:42;100739.44;;;14.80;35.16
78337;BME280;67610;51.588;7.002;2023-04-25T11:54:08;100723.88;;;14.85;34.87
78337;BME280;67610;51.588;7.002;2023-04-25T11:56:34;100729.50;;;14.82;34.94
78337;BME280;67610;51.588;7.002;2023-04-25T11:59:01;100720.63;;;14.75;34.44
78337;BME280;67610;51.588;7.002;2023-04-25T12:03:52;100725.56;;;15.00;35.60
78337;BME280;67610;51.588;7.002;2023-04-25T12:06:18;100729.38;;;14.98;35.93
78337;BME280;67610;51.588;7.002;2023-04-25T12:09:00;100728.78;;;15.10;35.97
78337;BME280;67610;51.588;7.002;2023-04-25T12:11:26;100742.69;;;15.12;35.23
78337;BME280;67610;51.588;7.002;2023-04-25T12:13:52;100742.28;;;15.01;35.60
78337;BME280;67610;51.588;7.002;2023-04-25T12:16:19;100749.31;;;14.86;35.98
78337;BME280;67610;51.588;7.002;2023-04-25T12:18:44;100748.72;;;14.76;36.44
78337;BME280;67610;51.588;7.002;2023-04-25T12:21:09;100753.84;;;14.54;36.57
78337;BME280;67610;51.588;7.002;2023-04-25T12:23:38;100757.91;;;14.34;36.91
78337;BME280;67610;51.588;7.002;2023-04-25T12:26:04;100766.06;;;14.17;36.66
78337;BME280;67610;51.588;7.002;2023-04-25T12:28:32;100752.09;;;13.92;37.05
78337;BME280;67610;51.588;7.002;2023-04-25T12:31:05;100752.41;;;13.97;38.07
78337;BME280;67610;51.588;7.002;2023-04-25T12:33:33;100761.34;;;13.88;38.53
78337;BME280;67610;51.588;7.002;2023-04-25T12:35:59;100765.50;;;13.82;38.20
78337;BME280;67610;51.588;7.002;2023-04-25T12:38:33;100765.34;;;13.84;38.52
78337;BME280;67610;51.588;7.002;2023-04-25T12:41:00;100768.31;;;13.89;38.76
78337;BME280;67610;51.588;7.002;2023-04-25T12:43:26;100771.91;;;13.96;37.62
78337;BME280;67610;51.588;7.002;2023-04-25T12:45:53;100769.94;;;13.90;37.81
78337;BME280;67610;51.588;7.002;2023-04-25T12:48:19;100770.56;;;14.00;38.43
78337;BME280;67610;51.588;7.002;2023-04-25T12:50:45;100772.06;;;14.02;38.66
78337;BME280;67610;51.588;7.002;2023-04-25T12:53:14;100775.22;;;13.98;38.28
78337;BME280;67610;51.588;7.002;2023-04-25T12:55:40;100778.88;;;13.89;38.06
78337;BME280;67610;51.588;7.002;2023-04-25T12:58:05;100780.19;;;13.93;38.62
78337;BME280;67610;51.588;7.002;2023-04-25T13:00:31;100774.88;;;13.93;38.78
78337;BME280;67610;51.588;7.002;2023-04-25T13:02:57;100779.53;;;13.91;38.61
78337;BME280;67610;51.588;7.002;2023-04-25T13:05:22;100785.84;;;13.82;38.82
78337;BME280;67610;51.588;7.002;2023-04-25T13:07:52;100778.59;;;13.76;38.69